Time;durP1;ratioP1;P1;durP2;ratioP2;P2;SDS_P1;SDS_P2;PMS_P1;PMS_P2;Temp;Humidity;BMP_temperature;BMP_pressure;BME280_temperature;BME280_humidity;BME280_pressure;Samples;Min_cycle;Max_cycle;Signal;HPM_P1;HPM_P2
2021/03/26 00:01:16;;;;;;;36.70;18.87;;;;;;;;;;5073236;28;20042;-80
2021/03/26 00:03:41;;;;;;;35.90;18.07;;;;;;;;;;5074345;28;20013;-80
2021/03/26 00:06:08;;;;;;;37.93;18.83;;;;;;;;;;5073034;28;20468;-80
2021/03/26 00:08:33;;;;;;;34.23;18.17;;;;;;;;;;5074853;28;20039;-80
2021/03/26 00:10:59;;;;;;;40.37;19.30;;;;;;;;;;5074598;28;20103;-80
2021/03/26 00:13:24;;;;;;;32.57;18.87;;;;;;;;;;5074032;28;20051;-80
2021/03/26 00:15:49;;;;;;;37.17;19.53;;;;;;;;;;5072840;28;20017;-80
2021/03/26 00:18:15;;;;;;;42.83;21.40;;;;;;;;;;5072828;28;20024;-80
2021/03/26 00:20:40;;;;;;;34.87;19.23;;;;;;;;;;5074351;28;20023;-80
2021/03/26 00:23:06;;;;;;;35.63;18.33;;;;;;;;;;5074023;28;20017;-80
2021/03/26 00:25:32;;;;;;;36.53;18.58;;;;;;;;;;5073009;28;20043;-80
2021/03/26 00:27:57;;;;;;;35.93;18.23;;;;;;;;;;5067887;28;20025;-80
2021/03/26 00:30:22;;;;;;;34.80;18.95;;;;;;;;;;5071831;28;20348;-81
2021/03/26 00:32:48;;;;;;;40.55;19.40;;;;;;;;;;5072722;28;20629;-80
2021/03/26 00:35:14;;;;;;;40.80;19.77;;;;;;;;;;5073672;28;20013;-80
2021/03/26 00:37:40;;;;;;;39.13;20.52;;;;;;;;;;5073902;28;20063;-80
2021/03/26 00:40:07;;;;;;;37.90;20.05;;;;;;;;;;5073658;28;20044;-80
2021/03/26 00:42:32;;;;;;;42.93;22.00;;;;;;;;;;5072503;28;20024;-80
2021/03/26 00:44:57;;;;;;;40.37;21.07;;;;;;;;;;5072252;28;20345;-80
2021/03/26 00:47:23;;;;;;;44.67;20.43;;;;;;;;;;5073508;28;20353;-80
2021/03/26 00:49:48;;;;;;;36.97;19.77;;;;;;;;;;5073777;28;20031;-81
2021/03/26 00:52:13;;;;;;;37.70;20.20;;;;;;;;;;5072249;28;20028;-81
2021/03/26 00:54:38;;;;;;;38.63;20.10;;;;;;;;;;5073580;28;20065;-81
2021/03/26 00:57:04;;;;;;;37.67;19.80;;;;;;;;;;5073850;28;20137;-81
2021/03/26 00:59:29;;;;;;;41.40;20.67;;;;;;;;;;5073286;28;20024;-81
2021/03/26 01:01:54;;;;;;;37.20;19.90;;;;;;;;;;5073584;28;20471;-81
2021/03/26 01:04:19;;;;;;;42.03;20.33;;;;;;;;;;5073294;28;20074;-81
2021/03/26 01:06:45;;;;;;;39.87;19.90;;;;;;;;;;5073329;28;20030;-81
2021/03/26 01:09:10;;;;;;;43.03;20.57;;;;;;;;;;5073420;28;20062;-81
2021/03/26 01:11:37;;;;;;;36.97;19.83;;;;;;;;;;5071771;28;20055;-81
2021/03/26 01:14:05;;;;;;;42.83;21.70;;;;;;;;;;5072045;28;20051;-81
2021/03/26 01:16:30;;;;;;;34.07;18.60;;;;;;;;;;5072429;28;20108;-81
2021/03/26 01:18:56;;;;;;;37.00;18.93;;;;;;;;;;5073142;28;20466;-81
2021/03/26 01:21:23;;;;;;;36.40;20.40;;;;;;;;;;5071963;28;20048;-80
2021/03/26 01:23:49;;;;;;;40.77;20.00;;;;;;;;;;5072951;28;20013;-81
2021/03/26 01:26:14;;;;;;;38.13;19.17;;;;;;;;;;5073112;28;20368;-80
2021/03/26 01:28:39;;;;;;;39.40;20.47;;;;;;;;;;5072560;28;20016;-80
2021/03/26 01:31:05;;;;;;;39.03;20.23;;;;;;;;;;5071609;28;20887;-81
2021/03/26 01:33:31;;;;;;;38.10;19.23;;;;;;;;;;5072983;28;20019;-80
2021/03/26 01:35:56;;;;;;;38.70;19.33;;;;;;;;;;5071672;28;20577;-80
2021/03/26 01:38:21;;;;;;;41.73;20.50;;;;;;;;;;5071277;28;20435;-80
2021/03/26 01:40:50;;;;;;;35.10;19.23;;;;;;;;;;5072909;28;20019;-80
2021/03/26 01:43:17;;;;;;;40.93;20.57;;;;;;;;;;5072493;28;20036;-80
2021/03/26 01:45:42;;;;;;;42.20;20.57;;;;;;;;;;5071074;28;20426;-80
2021/03/26 01:48:10;;;;;;;37.00;20.00;;;;;;;;;;5072723;28;20021;-80
2021/03/26 01:50:36;;;;;;;44.33;21.00;;;;;;;;;;5072677;28;20028;-80
2021/03/26 01:53:02;;;;;;;36.73;20.53;;;;;;;;;;5071294;28;20070;-81
2021/03/26 01:55:27;;;;;;;38.40;20.57;;;;;;;;;;5072875;28;20519;-80
2021/03/26 01:57:53;;;;;;;41.56;21.74;;;;;;;;;;5072170;28;20028;-80
2021/03/26 02:00:23;;;;;;;40.00;20.97;;;;;;;;;;5072726;28;20472;-81
2021/03/26 02:02:49;;;;;;;38.93;21.07;;;;;;;;;;5072389;28;20056;-81
2021/03/26 02:05:15;;;;;;;42.97;21.47;;;;;;;;;;5072477;28;20582;-81
2021/03/26 02:07:40;;;;;;;39.47;21.27;;;;;;;;;;5072207;28;20468;-80
2021/03/26 02:10:06;;;;;;;43.17;21.57;;;;;;;;;;5063736;28;20032;-80
2021/03/26 02:12:32;;;;;;;36.22;20.48;;;;;;;;;;5072270;28;20028;-80
2021/03/26 02:15:00;;;;;;;40.65;21.23;;;;;;;;;;5072213;28;20074;-81
2021/03/26 02:17:32;;;;;;;46.85;22.52;;;;;;;;;;5070680;28;20028;-81
2021/03/26 02:19:57;;;;;;;45.08;21.20;;;;;;;;;;5072305;28;20058;-81
2021/03/26 02:22:23;;;;;;;43.57;22.20;;;;;;;;;;5072368;28;20021;-80
2021/03/26 02:24:50;;;;;;;42.57;21.93;;;;;;;;;;5072121;28;20020;-80
2021/03/26 02:27:20;;;;;;;43.17;21.47;;;;;;;;;;5073190;28;20115;-80
2021/03/26 02:29:46;;;;;;;36.40;20.00;;;;;;;;;;5075228;28;20099;-81
2021/03/26 02:32:20;;;;;;;41.13;21.50;;;;;;;;;;5076015;28;20150;-81
2021/03/26 02:35:04;;;;;;;40.28;21.38;;;;;;;;;;5074188;28;20035;-81
2021/03/26 02:37:29;;;;;;;39.58;21.80;;;;;;;;;;5075944;28;20028;-81
2021/03/26 02:39:54;;;;;;;42.97;21.17;;;;;;;;;;5074350;28;20046;-81
2021/03/26 02:42:22;;;;;;;49.13;22.80;;;;;;;;;;5074162;28;20069;-81
2021/03/26 02:44:54;;;;;;;37.23;20.50;;;;;;;;;;5075251;28;20077;-81
2021/03/26 02:47:38;;;;;;;41.80;20.48;;;;;;;;;;5075367;28;20013;-81
2021/03/26 02:50:03;;;;;;;42.88;20.88;;;;;;;;;;5073933;28;20073;-81
2021/03/26 02:52:28;;;;;;;37.60;20.08;;;;;;;;;;5075260;28;20371;-81
2021/03/26 02:54:53;;;;;;;45.88;21.30;;;;;;;;;;5075339;28;20016;-81
2021/03/26 02:57:42;;;;;;;38.92;20.92;;;;;;;;;;5073384;28;20032;-81
2021/03/26 03:00:17;;;;;;;39.53;19.58;;;;;;;;;;5072703;28;20024;-81
2021/03/26 03:02:43;;;;;;;42.30;21.60;;;;;;;;;;5074240;28;20365;-80
2021/03/26 03:05:16;;;;;;;44.85;21.65;;;;;;;;;;5075209;28;20043;-80
2021/03/26 03:07:44;;;;;;;41.65;21.42;;;;;;;;;;5074385;28;20023;-80
2021/03/26 03:10:10;;;;;;;39.17;19.93;;;;;;;;;;5075553;28;20056;-81
2021/03/26 03:12:40;;;;;;;38.10;19.92;;;;;;;;;;5073994;28;20483;-81
2021/03/26 03:15:11;;;;;;;40.97;20.17;;;;;;;;;;5073794;28;20020;-81
2021/03/26 03:17:42;;;;;;;39.37;20.77;;;;;;;;;;5075002;28;20020;-80
2021/03/26 03:20:09;;;;;;;40.83;21.17;;;;;;;;;;5075504;28;20040;-80
2021/03/26 03:22:39;;;;;;;38.67;18.37;;;;;;;;;;5074175;28;20032;-80
2021/03/26 03:25:14;;;;;;;45.37;21.87;;;;;;;;;;5074032;28;20035;-80
2021/03/26 03:27:42;;;;;;;44.47;21.05;;;;;;;;;;5073935;28;20387;-80
2021/03/26 03:30:29;;;;;;;44.13;21.23;;;;;;;;;;5075046;28;20430;-80
2021/03/26 03:33:08;;;;;;;35.47;17.23;;;;;;;;;;5073606;28;20108;-80
2021/03/26 03:35:42;;;;;;;43.10;20.17;;;;;;;;;;5073844;28;20103;-80
2021/03/26 03:38:10;;;;;;;40.60;20.42;;;;;;;;;;5074474;28;20044;-80
2021/03/26 03:40:38;;;;;;;39.97;20.02;;;;;;;;;;5074933;28;20028;-79
2021/03/26 03:43:06;;;;;;;40.63;20.83;;;;;;;;;;5074997;28;20097;-78
2021/03/26 03:45:42;;;;;;;43.88;21.67;;;;;;;;;;5073762;28;20501;-78
2021/03/26 03:48:14;;;;;;;42.73;21.03;;;;;;;;;;5074963;28;20025;-78
2021/03/26 03:50:44;;;;;;;41.88;20.08;;;;;;;;;;5073471;28;20013;-78
2021/03/26 03:53:12;;;;;;;37.53;19.93;;;;;;;;;;5073565;28;20024;-78
2021/03/26 03:55:49;;;;;;;42.77;21.90;;;;;;;;;;5074351;28;20008;-78
2021/03/26 03:58:17;;;;;;;48.97;21.17;;;;;;;;;;5074805;28;20025;-78
2021/03/26 04:00:44;;;;;;;45.97;22.37;;;;;;;;;;5073265;28;20066;-78
2021/03/26 04:03:22;;;;;;;46.23;23.00;;;;;;;;;;5074681;28;20029;-78
2021/03/26 04:05:54;;;;;;;48.07;22.27;;;;;;;;;;5074422;28;20464;-78
2021/03/26 04:08:20;;;;;;;;;;;;;;;;;;5073654;28;20074;-80
2021/03/26 04:10:49;;;;;;;44.43;20.77;;;;;;;;;;5074341;28;19908;-80
2021/03/26 04:13:19;;;;;;;47.13;23.30;;;;;;;;;;5074476;28;20265;-80
2021/03/26 04:15:47;;;;;;;44.70;22.43;;;;;;;;;;5072842;28;20032;-80
2021/03/26 04:18:31;;;;;;;48.87;22.27;;;;;;;;;;5072572;28;20048;-80
2021/03/26 04:20:59;;;;;;;45.40;22.13;;;;;;;;;;5074207;28;20138;-81
2021/03/26 04:23:43;;;;;;;42.83;22.77;;;;;;;;;;5073067;28;20025;-81
2021/03/26 04:26:11;;;;;;;44.97;22.20;;;;;;;;;;5074161;28;20021;-80
2021/03/26 04:28:38;;;;;;;49.67;22.37;;;;;;;;;;5074212;28;20012;-80
2021/03/26 04:31:05;;;;;;;45.47;22.90;;;;;;;;;;5074253;28;20065;-80
2021/03/26 04:33:31;;;;;;;38.90;19.37;;;;;;;;;;5072505;28;20570;-80
2021/03/26 04:35:58;;;;;;;48.73;23.27;;;;;;;;;;5073745;28;20023;-80
2021/03/26 04:38:31;;;;;;;46.30;23.10;;;;;;;;;;5072523;28;20020;-80
2021/03/26 04:40:59;;;;;;;51.93;23.63;;;;;;;;;;5073836;28;20476;-81
2021/03/26 04:43:31;;;;;;;46.50;22.13;;;;;;;;;;5073607;28;20376;-81
2021/03/26 04:45:59;;;;;;;53.28;23.50;;;;;;;;;;5072450;28;20124;-81
2021/03/26 04:48:31;;;;;;;51.47;23.83;;;;;;;;;;5072110;28;20028;-80
2021/03/26 04:51:08;;;;;;;49.42;24.35;;;;;;;;;;5071448;28;20023;-80
2021/03/26 04:53:39;;;;;;;47.50;23.13;;;;;;;;;;5073598;28;20385;-80
2021/03/26 04:56:08;;;;;;;48.07;23.73;;;;;;;;;;5073559;28;20024;-80
2021/03/26 04:58:35;;;;;;;55.20;24.87;;;;;;;;;;5072073;28;20020;-80
2021/03/26 05:01:06;;;;;;;53.30;24.80;;;;;;;;;;5073269;28;20524;-80
2021/03/26 05:03:37;;;;;;;55.53;25.33;;;;;;;;;;5073340;28;20486;-80
2021/03/26 05:06:07;;;;;;;53.47;25.65;;;;;;;;;;5073514;28;20440;-80
2021/03/26 05:08:33;;;;;;;54.03;25.97;;;;;;;;;;5073346;28;20471;-80
2021/03/26 05:11:00;;;;;;;53.57;24.37;;;;;;;;;;5073328;28;20012;-80
2021/03/26 05:13:25;;;;;;;51.73;24.87;;;;;;;;;;5071884;28;20024;-80
2021/03/26 05:15:54;;;;;;;54.63;25.33;;;;;;;;;;5073064;28;20051;-80
2021/03/26 05:18:38;;;;;;;63.33;27.37;;;;;;;;;;5073184;28;20035;-80
2021/03/26 05:21:03;;;;;;;53.47;25.07;;;;;;;;;;5073113;28;20377;-80
2021/03/26 05:23:38;;;;;;;53.66;25.46;;;;;;;;;;5073254;28;20028;-80
2021/03/26 05:26:03;;;;;;;56.27;26.03;;;;;;;;;;5072990;28;20074;-80
2021/03/26 05:28:33;;;;;;;54.97;25.07;;;;;;;;;;5072993;28;20020;-80
2021/03/26 05:31:19;;;;;;;52.07;25.90;;;;;;;;;;5072694;28;20021;-80
2021/03/26 05:33:46;;;;;;;54.37;25.33;;;;;;;;;;5063119;28;20017;-80
2021/03/26 05:36:19;;;;;;;52.60;24.10;;;;;;;;;;5070519;28;20134;-80
2021/03/26 05:38:47;;;;;;;51.05;24.00;;;;;;;;;;5059382;28;20031;-81
2021/03/26 05:41:21;;;;;;;52.93;24.63;;;;;;;;;;5072807;28;20109;-81
2021/03/26 05:43:56;;;;;;;49.03;23.90;;;;;;;;;;5071469;28;20166;-81
2021/03/26 05:46:29;;;;;;;53.27;24.37;;;;;;;;;;5072597;28;20024;-81
2021/03/26 05:48:54;;;;;;;54.33;23.60;;;;;;;;;;5072640;28;20505;-80
2021/03/26 05:51:38;;;;;;;47.68;23.38;;;;;;;;;;5071366;28;20017;-80
2021/03/26 05:54:23;;;;;;;48.90;23.37;;;;;;;;;;5071165;28;20039;-80
2021/03/26 05:57:11;;;;;;;55.13;24.37;;;;;;;;;;5072478;28;20013;-80
2021/03/26 05:59:39;;;;;;;50.03;24.57;;;;;;;;;;5065295;28;20445;-80
2021/03/26 06:02:17;;;;;;;51.63;24.87;;;;;;;;;;5071583;28;21390;-81
2021/03/26 06:04:45;;;;;;;52.17;25.57;;;;;;;;;;5071253;28;20040;-80
2021/03/26 06:07:36;;;;;;;50.10;25.00;;;;;;;;;;5072245;28;20016;-80
2021/03/26 06:10:20;;;;;;;49.67;22.53;;;;;;;;;;5072583;28;20067;-80
2021/03/26 06:13:03;;;;;;;50.37;24.50;;;;;;;;;;5072076;28;20054;-80
2021/03/26 06:15:54;;;;;;;47.20;23.53;;;;;;;;;;5072102;28;20119;-78
2021/03/26 06:18:29;;;;;;;44.10;20.97;;;;;;;;;;5063643;28;20153;-78
2021/03/26 06:21:04;;;;;;;48.38;22.27;;;;;;;;;;5070730;28;20104;-78
2021/03/26 06:23:29;;;;;;;52.45;22.52;;;;;;;;;;5070830;28;20532;-78
2021/03/26 06:26:12;;;;;;;45.94;24.12;;;;;;;;;;5071832;28;20107;-78
2021/03/26 06:28:56;;;;;;;47.03;23.88;;;;;;;;;;5059105;28;20103;-78
2021/03/26 06:31:21;;;;;;;47.40;23.40;;;;;;;;;;5069825;28;20020;-78
2021/03/26 06:34:05;;;;;;;48.07;22.17;;;;;;;;;;5071509;28;20020;-78
2021/03/26 06:36:42;;;;;;;49.13;23.57;;;;;;;;;;5069849;28;20090;-78
2021/03/26 06:39:26;;;;;;;49.00;22.40;;;;;;;;;;5071433;28;20020;-78
2021/03/26 06:41:57;;;;;;;57.17;26.53;;;;;;;;;;5070597;28;20043;-78
2021/03/26 06:44:28;;;;;;;49.83;23.57;;;;;;;;;;5069977;28;20468;-78
2021/03/26 06:47:09;;;;;;;49.53;23.50;;;;;;;;;;5071909;28;20051;-78
2021/03/26 06:49:54;;;;;;;51.70;25.87;;;;;;;;;;5070668;28;20020;-78
2021/03/26 06:52:28;;;;;;;48.28;24.75;;;;;;;;;;5071708;28;20029;-78
2021/03/26 06:55:05;;;;;;;49.63;24.00;;;;;;;;;;5072132;28;20025;-78
2021/03/26 06:57:45;;;;;;;43.70;23.13;;;;;;;;;;5071894;28;20043;-80
2021/03/26 07:00:13;;;;;;;45.67;20.57;;;;;;;;;;5071753;28;20025;-80
2021/03/26 07:02:46;;;;;;;48.90;22.67;;;;;;;;;;5070349;28;20468;-81
2021/03/26 07:05:11;;;;;;;40.90;21.73;;;;;;;;;;5069180;28;20024;-81
2021/03/26 07:08:12;;;;;;;51.50;22.43;;;;;;;;;;5069448;28;20021;-81
2021/03/26 07:10:37;;;;;;;47.10;22.23;;;;;;;;;;5049177;28;20025;-80
2021/03/26 07:13:21;;;;;;;46.20;22.33;;;;;;;;;;5065159;28;20119;-80
2021/03/26 07:15:58;;;;;;;45.50;21.23;;;;;;;;;;5070871;28;20024;-81
2021/03/26 07:18:26;;;;;;;41.80;21.07;;;;;;;;;;5075225;28;20391;-81
2021/03/26 07:21:11;;;;;;;47.00;22.70;;;;;;;;;;5075257;28;20020;-81
2021/03/26 07:23:36;;;;;;;45.37;21.83;;;;;;;;;;5074431;28;20027;-81
2021/03/26 07:26:13;;;;;;;43.88;20.54;;;;;;;;;;5075235;28;20024;-80
2021/03/26 07:28:48;;;;;;;41.83;22.05;;;;;;;;;;5073562;28;20379;-80
2021/03/26 07:31:23;;;;;;;41.00;20.33;;;;;;;;;;5074987;28;20016;-80
2021/03/26 07:33:54;;;;;;;44.00;21.07;;;;;;;;;;5075195;28;20012;-80
2021/03/26 07:36:34;;;;;;;44.50;22.38;;;;;;;;;;5074217;28;20039;-80
2021/03/26 07:39:10;;;;;;;43.20;21.47;;;;;;;;;;5073588;28;20023;-80
2021/03/26 07:41:35;;;;;;;41.53;21.35;;;;;;;;;;5073288;28;20027;-81
2021/03/26 07:44:03;;;;;;;38.13;19.52;;;;;;;;;;5074919;28;20025;-80
2021/03/26 07:46:28;;;;;;;34.50;13.85;;;;;;;;;;5073637;28;20028;-81
2021/03/26 07:49:12;;;;;;;42.07;21.57;;;;;;;;;;5073193;28;20021;-80
2021/03/26 07:51:37;;;;;;;36.28;19.00;;;;;;;;;;5073328;28;20016;-80
2021/03/26 07:54:02;;;;;;;36.88;18.20;;;;;;;;;;5074659;28;20023;-80
2021/03/26 07:56:28;;;;;;;36.87;19.03;;;;;;;;;;5074679;28;20113;-80
2021/03/26 07:59:12;;;;;;;33.92;18.95;;;;;;;;;;5073197;28;20016;-80
2021/03/26 08:01:49;;;;;;;39.17;17.67;;;;;;;;;;5073319;28;20107;-81
2021/03/26 08:04:26;;;;;;;36.80;16.85;;;;;;;;;;5074602;28;20401;-80
2021/03/26 08:07:10;;;;;;;36.10;16.77;;;;;;;;;;5074432;28;20017;-80
2021/03/26 08:09:47;;;;;;;37.20;17.37;;;;;;;;;;5072214;28;20067;-80
2021/03/26 08:12:15;;;;;;;31.57;15.23;;;;;;;;;;5072786;28;20094;-80
2021/03/26 08:14:54;;;;;;;39.97;16.92;;;;;;;;;;5072405;28;20025;-80
2021/03/26 08:17:38;;;;;;;31.55;15.75;;;;;;;;;;5073458;28;20407;-80
2021/03/26 08:20:16;;;;;;;27.33;14.50;;;;;;;;;;5066369;28;20046;-80
2021/03/26 08:23:00;;;;;;;27.37;14.30;;;;;;;;;;5074561;28;20013;-80
2021/03/26 08:25:31;;;;;;;23.83;11.90;;;;;;;;;;5072566;28;20035;-81
2021/03/26 08:28:15;;;;;;;30.73;15.43;;;;;;;;;;5072535;28;20415;-81
2021/03/26 08:30:50;;;;;;;28.20;14.60;;;;;;;;;;5071491;28;20012;-81
2021/03/26 08:33:15;;;;;;;29.15;14.95;;;;;;;;;;5072375;28;20025;-81
2021/03/26 08:35:52;;;;;;;26.02;11.82;;;;;;;;;;5073839;28;20015;-81
2021/03/26 08:38:35;;;;;;;27.08;12.25;;;;;;;;;;5072579;28;20420;-81
2021/03/26 08:41:02;;;;;;;26.20;13.32;;;;;;;;;;5073347;28;20039;-81
2021/03/26 08:43:29;;;;;;;17.25;8.50;;;;;;;;;;5072234;28;20526;-81
2021/03/26 08:45:54;;;;;;;25.92;12.35;;;;;;;;;;5072014;28;20024;-81
2021/03/26 08:48:23;;;;;;;24.02;11.36;;;;;;;;;;5072312;28;20027;-81
2021/03/26 08:51:06;;;;;;;30.13;14.38;;;;;;;;;;5074140;28;20028;-81
2021/03/26 08:53:55;;;;;;;29.27;11.88;;;;;;;;;;5073410;28;20108;-80
2021/03/26 08:56:49;;;;;;;30.75;13.63;;;;;;;;;;5069845;28;20032;-80
2021/03/26 08:59:20;;;;;;;22.58;11.68;;;;;;;;;;5051723;28;20431;-81
2021/03/26 09:01:55;;;;;;;28.88;12.82;;;;;;;;;;5073218;28;20070;-81
2021/03/26 09:04:32;;;;;;;28.25;13.82;;;;;;;;;;5073203;28;20027;-80
2021/03/26 09:07:08;;;;;;;28.23;13.02;;;;;;;;;;5071719;28;20016;-81
2021/03/26 09:09:33;;;;;;;26.05;12.32;;;;;;;;;;5072983;28;20055;-81
2021/03/26 09:12:05;;;;;;;27.80;13.22;;;;;;;;;;5069125;28;20499;-81
2021/03/26 09:14:49;;;;;;;22.20;11.23;;;;;;;;;;5073212;28;20035;-80
2021/03/26 09:17:26;;;;;;;24.60;11.85;;;;;;;;;;5073091;28;20025;-81
2021/03/26 09:19:51;;;;;;;21.98;9.50;;;;;;;;;;5072693;28;20042;-81
2021/03/26 09:22:32;;;;;;;21.05;9.70;;;;;;;;;;5071358;28;20411;-80
2021/03/26 09:25:18;;;;;;;21.25;11.50;;;;;;;;;;5071212;28;20017;-80
2021/03/26 09:27:49;;;;;;;19.90;9.63;;;;;;;;;;5072946;28;20089;-80
2021/03/26 09:30:26;;;;;;;18.38;9.05;;;;;;;;;;5072543;28;20020;-78
2021/03/26 09:32:56;;;;;;;22.33;10.73;;;;;;;;;;5072572;28;20118;-79
2021/03/26 09:35:30;;;;;;;21.48;9.20;;;;;;;;;;5071168;28;20376;-80
2021/03/26 09:38:05;;;;;;;19.85;8.90;;;;;;;;;;5068555;28;20035;-81
2021/03/26 09:40:37;;;;;;;23.75;10.00;;;;;;;;;;5095523;28;20028;-80
2021/03/26 09:43:06;;;;;;;16.48;8.48;;;;;;;;;;5072336;28;20069;-81
2021/03/26 09:45:41;;;;;;;16.50;8.45;;;;;;;;;;5072994;28;20077;-80
2021/03/26 09:48:07;;;;;;;22.17;9.52;;;;;;;;;;5071670;28;20059;-80
2021/03/26 09:50:37;;;;;;;16.88;8.50;;;;;;;;;;5072340;28;20043;-80
2021/03/26 09:53:11;;;;;;;16.58;7.35;;;;;;;;;;5071400;28;20016;-80
2021/03/26 09:55:37;;;;;;;15.15;7.53;;;;;;;;;;5071513;28;20352;-80
2021/03/26 09:58:10;;;;;;;21.85;8.15;;;;;;;;;;5072178;28;20032;-80
2021/03/26 10:00:38;;;;;;;20.77;7.70;;;;;;;;;;5072216;28;20059;-80
2021/03/26 10:03:17;;;;;;;14.38;6.32;;;;;;;;;;5072554;28;20075;-80
2021/03/26 10:05:43;;;;;;;16.88;7.68;;;;;;;;;;5072177;28;20024;-80
2021/03/26 10:08:42;;;;;;;18.13;8.00;;;;;;;;;;5071692;28;20108;-80
2021/03/26 10:11:09;;;;;;;18.77;8.77;;;;;;;;;;5067766;28;20017;-80
2021/03/26 10:13:41;;;;;;;15.23;6.63;;;;;;;;;;5071333;28;20074;-80
2021/03/26 10:16:09;;;;;;;17.08;5.55;;;;;;;;;;5057249;28;20044;-80
2021/03/26 10:18:41;;;;;;;22.08;7.85;;;;;;;;;;5070867;28;20025;-80
2021/03/26 10:21:17;;;;;;;14.13;5.85;;;;;;;;;;5071938;28;20052;-80
2021/03/26 10:23:57;;;;;;;19.05;7.50;;;;;;;;;;5072244;28;20025;-80
2021/03/26 10:26:33;;;;;;;15.43;5.50;;;;;;;;;;5070684;28;20409;-80
2021/03/26 10:29:01;;;;;;;12.77;4.28;;;;;;;;;;5070746;28;20021;-80
2021/03/26 10:31:32;;;;;;;11.38;4.03;;;;;;;;;;5071925;28;20099;-80
2021/03/26 10:33:59;;;;;;;22.05;4.78;;;;;;;;;;5071724;28;20107;-80
2021/03/26 10:36:24;;;;;;;12.45;4.55;;;;;;;;;;5071890;28;20017;-80
2021/03/26 10:39:02;;;;;;;15.38;4.43;;;;;;;;;;5070486;28;20534;-80
2021/03/26 10:41:30;;;;;;;17.58;5.57;;;;;;;;;;5070378;28;20039;-80
2021/03/26 10:44:17;;;;;;;18.70;4.95;;;;;;;;;;5071842;28;20021;-80
2021/03/26 10:46:44;;;;;;;12.07;4.78;;;;;;;;;;5052955;28;20056;-80
2021/03/26 10:49:12;;;;;;;8.30;3.85;;;;;;;;;;5074512;28;20450;-80
2021/03/26 10:51:37;;;;;;;15.55;4.55;;;;;;;;;;5075608;28;20043;-80
2021/03/26 10:54:03;;;;;;;11.07;3.20;;;;;;;;;;5074841;28;20456;-80
2021/03/26 10:56:37;;;;;;;18.08;3.44;;;;;;;;;;5074659;28;20020;-80
2021/03/26 10:59:11;;;;;;;10.63;3.72;;;;;;;;;;5074491;28;20048;-79
2021/03/26 11:01:38;;;;;;;7.97;3.70;;;;;;;;;;5075835;28;20028;-80
2021/03/26 11:04:17;;;;;;;6.45;3.05;;;;;;;;;;5075474;28;20020;-80
2021/03/26 11:06:49;;;;;;;9.95;3.30;;;;;;;;;;5075237;28;20055;-80
2021/03/26 11:09:19;;;;;;;5.73;2.60;;;;;;;;;;5075507;28;20029;-80
2021/03/26 11:11:58;;;;;;;7.63;2.22;;;;;;;;;;5074178;28;20307;-80
2021/03/26 11:14:44;;;;;;;7.22;1.83;;;;;;;;;;5075200;28;20444;-80
2021/03/26 11:17:22;;;;;;;10.48;2.70;;;;;;;;;;5070098;28;20025;-80
2021/03/26 11:20:06;;;;;;;8.25;2.30;;;;;;;;;;5066799;28;20013;-80
2021/03/26 11:22:31;;;;;;;7.43;2.10;;;;;;;;;;5058618;28;20021;-80
2021/03/26 11:25:08;;;;;;;7.55;2.50;;;;;;;;;;5075123;28;20023;-80
2021/03/26 11:27:38;;;;;;;10.43;2.67;;;;;;;;;;5073641;28;20031;-80
2021/03/26 11:30:30;;;;;;;8.23;2.25;;;;;;;;;;5073430;28;20472;-80
2021/03/26 11:32:59;;;;;;;9.38;2.38;;;;;;;;;;5073858;28;20032;-80
2021/03/26 11:35:25;;;;;;;10.15;2.65;;;;;;;;;;5073729;28;20028;-80
2021/03/26 11:37:57;;;;;;;6.90;2.72;;;;;;;;;;5074911;28;20048;-80
2021/03/26 11:40:32;;;;;;;11.35;2.25;;;;;;;;;;5093357;28;20021;-80
2021/03/26 11:43:13;;;;;;;8.98;2.33;;;;;;;;;;5073784;28;20479;-80
2021/03/26 11:45:42;;;;;;;7.45;2.00;;;;;;;;;;5062441;28;20055;-80
2021/03/26 11:48:13;;;;;;;7.80;2.20;;;;;;;;;;5068670;28;20024;-80
2021/03/26 11:50:38;;;;;;;6.78;1.90;;;;;;;;;;5073157;28;20043;-80
2021/03/26 11:53:21;;;;;;;6.07;2.47;;;;;;;;;;5075024;28;20040;-80
2021/03/26 11:56:13;;;;;;;5.65;1.60;;;;;;;;;;5073607;28;20043;-80
2021/03/26 11:58:47;;;;;;;7.05;1.38;;;;;;;;;;5055495;28;20057;-80
2021/03/26 12:01:16;;;;;;;10.50;1.73;;;;;;;;;;5073116;28;20021;-80
2021/03/26 12:04:17;;;;;;;7.57;1.60;;;;;;;;;;5074459;28;20020;-80
2021/03/26 12:06:45;;;;;;;7.43;1.50;;;;;;;;;;5062228;28;20090;-80
2021/03/26 12:09:13;;;;;;;5.50;1.30;;;;;;;;;;5061590;28;20036;-80
2021/03/26 12:12:05;;;;;;;5.70;1.38;;;;;;;;;;5073111;28;20040;-80
2021/03/26 12:14:43;;;;;;;4.75;1.33;;;;;;;;;;5065343;28;20450;-80
2021/03/26 12:17:28;;;;;;;6.32;1.65;;;;;;;;;;5072863;28;20097;-80
2021/03/26 12:20:00;;;;;;;7.85;1.77;;;;;;;;;;5072807;28;20031;-80
2021/03/26 12:22:41;;;;;;;5.53;1.48;;;;;;;;;;5074202;28;20028;-80
2021/03/26 12:25:12;;;;;;;7.93;1.70;;;;;;;;;;5074015;28;20024;-80
2021/03/26 12:27:48;;;;;;;7.40;1.38;;;;;;;;;;5073984;28;20136;-80
2021/03/26 12:30:49;;;;;;;5.10;1.55;;;;;;;;;;5073771;28;20142;-80
2021/03/26 12:33:26;;;;;;;4.78;1.55;;;;;;;;;;5030941;28;20048;-80
2021/03/26 12:35:57;;;;;;;8.10;1.90;;;;;;;;;;5063860;28;20058;-80
2021/03/26 12:38:29;;;;;;;7.18;1.60;;;;;;;;;;5073762;28;20034;-80
2021/03/26 12:40:54;;;;;;;12.25;1.80;;;;;;;;;;5072624;28;20112;-80
2021/03/26 12:43:22;;;;;;;6.24;1.80;;;;;;;;;;5073851;28;20492;-80
2021/03/26 12:45:55;;;;;;;5.57;2.10;;;;;;;;;;5073639;28;20376;-80
2021/03/26 12:48:22;;;;;;;8.43;1.95;;;;;;;;;;5073716;28;20031;-80
2021/03/26 12:50:51;;;;;;;8.40;2.13;;;;;;;;;;5073785;28;20016;-80
2021/03/26 12:53:23;;;;;;;4.95;2.17;;;;;;;;;;5073587;28;20013;-80
2021/03/26 12:55:54;;;;;;;7.45;2.25;;;;;;;;;;5063498;28;20436;-80
2021/03/26 12:58:31;;;;;;;6.45;2.03;;;;;;;;;;5064692;28;20024;-80
2021/03/26 13:01:10;;;;;;;8.15;2.15;;;;;;;;;;5064256;28;20507;-80
2021/03/26 13:03:35;;;;;;;5.00;1.92;;;;;;;;;;5067616;28;20017;-80
2021/03/26 13:06:00;;;;;;;7.53;2.03;;;;;;;;;;5060487;28;20012;-80
2021/03/26 13:08:28;;;;;;;7.32;2.33;;;;;;;;;;5063567;28;20096;-80
2021/03/26 13:10:57;;;;;;;8.25;2.30;;;;;;;;;;5066886;28;20050;-80
2021/03/26 13:13:31;;;;;;;6.13;2.60;;;;;;;;;;5064209;28;20037;-80
2021/03/26 13:16:09;;;;;;;8.40;2.72;;;;;;;;;;5066299;28;20049;-80
2021/03/26 13:18:44;;;;;;;6.13;2.88;;;;;;;;;;5070223;28;20431;-80
2021/03/26 13:21:13;;;;;;;8.45;2.75;;;;;;;;;;5069077;28;20064;-80
2021/03/26 13:23:40;;;;;;;5.30;2.22;;;;;;;;;;5072849;28;20063;-80
2021/03/26 13:26:15;;;;;;;11.23;2.55;;;;;;;;;;5072487;28;20036;-80
2021/03/26 13:28:42;;;;;;;6.20;2.40;;;;;;;;;;5073019;28;20029;-80
2021/03/26 13:31:08;;;;;;;12.80;2.63;;;;;;;;;;5072831;28;20100;-80
2021/03/26 13:33:39;;;;;;;9.46;2.58;;;;;;;;;;5072969;28;20525;-80
2021/03/26 13:36:23;;;;;;;6.97;2.35;;;;;;;;;;5071249;28;20486;-80
2021/03/26 13:38:59;;;;;;;5.13;1.77;;;;;;;;;;5068667;28;20372;-80
2021/03/26 13:41:33;;;;;;;9.23;2.13;;;;;;;;;;5071253;28;20017;-80
2021/03/26 13:44:13;;;;;;;9.15;2.00;;;;;;;;;;5072772;28;20017;-79
2021/03/26 13:46:39;;;;;;;4.78;2.13;;;;;;;;;;5071185;28;20027;-80
2021/03/26 13:49:13;;;;;;;7.40;2.35;;;;;;;;;;5070828;28;20028;-80
2021/03/26 13:51:40;;;;;;;4.03;1.73;;;;;;;;;;5072223;28;20016;-80
2021/03/26 13:54:17;;;;;;;6.40;1.95;;;;;;;;;;5072484;28;20025;-80
2021/03/26 13:56:47;;;;;;;9.80;2.53;;;;;;;;;;5072117;28;20468;-80
2021/03/26 13:59:13;;;;;;;10.48;2.67;;;;;;;;;;5072151;28;20078;-80
2021/03/26 14:01:52;;;;;;;6.88;2.15;;;;;;;;;;5072470;28;20051;-80
2021/03/26 14:04:22;;;;;;;4.25;1.85;;;;;;;;;;5072443;28;20020;-80
2021/03/26 14:07:20;;;;;;;6.68;2.58;;;;;;;;;;5071106;28;20025;-80
2021/03/26 14:09:55;;;;;;;6.35;1.58;;;;;;;;;;5057160;28;20044;-80
2021/03/26 14:12:24;;;;;;;5.85;1.60;;;;;;;;;;5069373;28;20383;-80
2021/03/26 14:15:01;;;;;;;5.03;1.40;;;;;;;;;;5070809;28;20141;-80
2021/03/26 14:17:33;;;;;;;4.80;1.42;;;;;;;;;;5069615;28;20020;-80
2021/03/26 14:20:11;;;;;;;4.25;1.15;;;;;;;;;;5065002;28;20021;-80
2021/03/26 14:22:38;;;;;;;7.20;1.88;;;;;;;;;;5066393;28;20377;-80
2021/03/26 14:25:10;;;;;;;6.80;1.60;;;;;;;;;;5074542;28;20021;-80
2021/03/26 14:27:41;;;;;;;6.43;1.70;;;;;;;;;;5076175;28;20031;-80
2021/03/26 14:30:25;;;;;;;4.10;1.50;;;;;;;;;;5074578;28;20725;-80
2021/03/26 14:32:58;;;;;;;6.07;1.60;;;;;;;;;;5075992;28;20375;-80
2021/03/26 14:35:43;;;;;;;6.68;1.50;;;;;;;;;;5076367;28;20487;-80
2021/03/26 14:38:17;;;;;;;5.85;1.58;;;;;;;;;;5076131;28;20048;-80
2021/03/26 14:40:43;;;;;;;5.13;1.60;;;;;;;;;;5075984;28;20111;-79
2021/03/26 14:43:11;;;;;;;6.93;1.08;;;;;;;;;;5074659;28;20116;-80
2021/03/26 14:45:40;;;;;;;6.35;1.88;;;;;;;;;;5076768;28;20028;-80
2021/03/26 14:48:08;;;;;;;7.13;2.00;;;;;;;;;;5074955;28;20052;-80
2021/03/26 14:50:34;;;;;;;4.32;1.67;;;;;;;;;;5075348;28;20111;-80
2021/03/26 14:53:01;;;;;;;2.95;1.40;;;;;;;;;;5076173;28;20040;-80
2021/03/26 14:55:29;;;;;;;4.93;1.60;;;;;;;;;;5075856;28;20024;-80